sensor_id;sensor_type;location;lat;lon;timestamp;pressure;altitude;pressure_sealevel;temperature;humidity
45763;BME280;37512;52.408;13.356;2023-11-21T00:01:37;100249.63;;;11.56;74.79
45763;BME280;37512;52.408;13.356;2023-11-21T00:05:38;100249.44;;;11.29;76.37
45763;BME280;37512;52.408;13.356;2023-11-21T00:09:43;100248.09;;;11.18;76.86
45763;BME280;37512;52.408;13.356;2023-11-21T00:13:44;100254.00;;;11.85;73.82
45763;BME280;37512;52.408;13.356;2023-11-21T00:17:51;100252.75;;;11.31;76.20
45763;BME280;37512;52.408;13.356;2023-11-21T00:21:53;100268.31;;;11.42;76.39
45763;BME280;37512;52.408;13.356;2023-11-21T00:25:55;100274.81;;;11.55;75.32
45763;BME280;37512;52.408;13.356;2023-11-21T00:29:58;100266.47;;;11.71;73.63
45763;BME280;37512;52.408;13.356;2023-11-21T00:33:59;100258.41;;;11.43;73.49
45763;BME280;37512;52.408;13.356;2023-11-21T00:38:01;100274.13;;;11.25;73.07
45763;BME280;37512;52.408;13.356;2023-11-21T00:42:05;100286.31;;;11.27;72.87
45763;BME280;37512;52.408;13.356;2023-11-21T00:46:08;100290.97;;;11.12;72.49
45763;BME280;37512;52.408;13.356;2023-11-21T00:50:10;100301.03;;;10.74;72.95
45763;BME280;37512;52.408;13.356;2023-11-21T00:54:12;100299.28;;;10.81;72.91
45763;BME280;37512;52.408;13.356;2023-11-21T00:58:14;100307.94;;;10.47;73.47
45763;BME280;37512;52.408;13.356;2023-11-21T01:02:16;100309.59;;;10.63;71.79
45763;BME280;37512;52.408;13.356;2023-11-21T01:06:25;100312.44;;;10.61;72.17
45763;BME280;37512;52.408;13.356;2023-11-21T01:10:27;100315.97;;;10.32;73.70
45763;BME280;37512;52.408;13.356;2023-11-21T01:14:29;100326.94;;;10.08;73.04
45763;BME280;37512;52.408;13.356;2023-11-21T01:18:30;100338.84;;;9.67;74.64
45763;BME280;37512;52.408;13.356;2023-11-21T01:22:32;100337.72;;;10.00;73.02
45763;BME280;37512;52.408;13.356;2023-11-21T01:26:35;100331.34;;;10.01;72.83
45763;BME280;37512;52.408;13.356;2023-11-21T01:30:37;100340.22;;;10.01;72.32
45763;BME280;37512;52.408;13.356;2023-11-21T01:34:45;100349.03;;;9.72;73.28
45763;BME280;37512;52.408;13.356;2023-11-21T01:38:49;100346.16;;;10.11;72.23
45763;BME280;37512;52.408;13.356;2023-11-21T01:42:54;100355.00;;;10.12;71.89
45763;BME280;37512;52.408;13.356;2023-11-21T01:46:59;100348.53;;;9.91;72.20
45763;BME280;37512;52.408;13.356;2023-11-21T01:51:04;100355.34;;;9.94;71.47
45763;BME280;37512;52.408;13.356;2023-11-21T01:55:07;100361.53;;;9.94;72.25
45763;BME280;37512;52.408;13.356;2023-11-21T01:59:12;100369.47;;;9.65;72.64
45763;BME280;37512;52.408;13.356;2023-11-21T02:03:21;100362.22;;;9.74;71.96
45763;BME280;37512;52.408;13.356;2023-11-21T02:07:23;100367.41;;;9.75;72.02
45763;BME280;37512;52.408;13.356;2023-11-21T02:11:25;100381.78;;;9.51;72.78
45763;BME280;37512;52.408;13.356;2023-11-21T02:15:29;100388.84;;;9.67;72.34
45763;BME280;37512;52.408;13.356;2023-11-21T02:19:31;100397.78;;;9.59;72.23
45763;BME280;37512;52.408;13.356;2023-11-21T02:23:34;100386.78;;;9.31;73.31
45763;BME280;37512;52.408;13.356;2023-11-21T02:27:43;100388.16;;;9.27;73.37
45763;BME280;37512;52.408;13.356;2023-11-21T02:31:52;100390.66;;;9.29;72.00
45763;BME280;37512;52.408;13.356;2023-11-21T02:36:08;100393.31;;;9.29;71.44
45763;BME280;37512;52.408;13.356;2023-11-21T02:40:11;100398.72;;;9.44;71.17
45763;BME280;37512;52.408;13.356;2023-11-21T02:44:19;100413.84;;;9.59;71.48
45763;BME280;37512;52.408;13.356;2023-11-21T02:48:23;100411.63;;;9.63;70.52
45763;BME280;37512;52.408;13.356;2023-11-21T02:52:27;100421.97;;;9.66;70.28
45763;BME280;37512;52.408;13.356;2023-11-21T02:56:29;100420.78;;;9.46;71.65
45763;BME280;37512;52.408;13.356;2023-11-21T03:00:31;100411.75;;;9.24;70.86
45763;BME280;37512;52.408;13.356;2023-11-21T03:04:35;100410.31;;;9.36;70.52
45763;BME280;37512;52.408;13.356;2023-11-21T03:08:36;100408.31;;;9.07;71.75
45763;BME280;37512;52.408;13.356;2023-11-21T03:12:41;100434.63;;;9.18;71.16
45763;BME280;37512;52.408;13.356;2023-11-21T03:16:43;100423.88;;;9.03;71.05
45763;BME280;37512;52.408;13.356;2023-11-21T03:20:59;100428.53;;;9.32;70.28
45763;BME280;37512;52.408;13.356;2023-11-21T03:25:01;100433.56;;;9.04;70.41
45763;BME280;37512;52.408;13.356;2023-11-21T03:29:06;100440.31;;;8.84;71.72
45763;BME280;37512;52.408;13.356;2023-11-21T03:33:08;100457.16;;;8.85;71.07
45763;BME280;37512;52.408;13.356;2023-11-21T03:37:10;100456.34;;;9.23;70.14
45763;BME280;37512;52.408;13.356;2023-11-21T03:41:11;100460.41;;;9.11;71.10
45763;BME280;37512;52.408;13.356;2023-11-21T03:45:24;100458.00;;;9.24;69.90
45763;BME280;37512;52.408;13.356;2023-11-21T03:49:26;100474.56;;;9.20;70.54
45763;BME280;37512;52.408;13.356;2023-11-21T03:53:28;100475.72;;;8.86;70.93
45763;BME280;37512;52.408;13.356;2023-11-21T03:57:35;100483.00;;;9.00;70.75
45763;BME280;37512;52.408;13.356;2023-11-21T04:01:40;100479.19;;;8.95;70.83
45763;BME280;37512;52.408;13.356;2023-11-21T04:05:42;100487.38;;;8.93;70.66
45763;BME280;37512;52.408;13.356;2023-11-21T04:09:44;100494.09;;;8.81;70.01
45763;BME280;37512;52.408;13.356;2023-11-21T04:13:45;100490.13;;;8.61;70.56
45763;BME280;37512;52.408;13.356;2023-11-21T04:17:48;100478.50;;;8.37;70.91
45763;BME280;37512;52.408;13.356;2023-11-21T04:21:52;100504.78;;;8.81;69.43
45763;BME280;37512;52.408;13.356;2023-11-21T04:25:56;100501.09;;;8.82;70.12
45763;BME280;37512;52.408;13.356;2023-11-21T04:30:00;100512.28;;;8.86;69.58
45763;BME280;37512;52.408;13.356;2023-11-21T04:34:02;100524.50;;;8.64;70.02
45763;BME280;37512;52.408;13.356;2023-11-21T04:38:05;100531.34;;;8.26;69.47
45763;BME280;37512;52.408;13.356;2023-11-21T04:42:07;100532.34;;;8.33;70.03
45763;BME280;37512;52.408;13.356;2023-11-21T04:46:09;100531.38;;;8.42;68.77
45763;BME280;37512;52.408;13.356;2023-11-21T04:50:11;100535.69;;;8.27;68.98
45763;BME280;37512;52.408;13.356;2023-11-21T04:54:17;100531.88;;;8.45;68.43
45763;BME280;37512;52.408;13.356;2023-11-21T04:58:36;100536.22;;;8.55;67.58
45763;BME280;37512;52.408;13.356;2023-11-21T05:02:40;100555.22;;;8.27;68.90
45763;BME280;37512;52.408;13.356;2023-11-21T05:06:43;100556.41;;;8.57;68.71
45763;BME280;37512;52.408;13.356;2023-11-21T05:10:49;100564.41;;;8.49;68.16
45763;BME280;37512;52.408;13.356;2023-11-21T05:14:53;100569.28;;;8.54;67.26
45763;BME280;37512;52.408;13.356;2023-11-21T05:19:04;100570.88;;;8.30;68.85
45763;BME280;37512;52.408;13.356;2023-11-21T05:23:10;100582.28;;;8.49;68.03
45763;BME280;37512;52.408;13.356;2023-11-21T05:27:12;100587.41;;;8.18;68.96
45763;BME280;37512;52.408;13.356;2023-11-21T05:31:16;100583.63;;;8.53;67.93
45763;BME280;37512;52.408;13.356;2023-11-21T05:35:34;100589.59;;;8.22;68.52
45763;BME280;37512;52.408;13.356;2023-11-21T05:39:53;100599.78;;;8.75;66.68
45763;BME280;37512;52.408;13.356;2023-11-21T05:43:57;100605.47;;;8.40;67.68
45763;BME280;37512;52.408;13.356;2023-11-21T05:48:11;100610.81;;;8.72;66.53
45763;BME280;37512;52.408;13.356;2023-11-21T05:52:13;100617.16;;;8.55;66.62
45763;BME280;37512;52.408;13.356;2023-11-21T05:56:15;100625.00;;;8.57;67.69
45763;BME280;37512;52.408;13.356;2023-11-21T06:00:18;100630.69;;;8.54;67.77
45763;BME280;37512;52.408;13.356;2023-11-21T06:04:23;100629.50;;;8.89;66.25
45763;BME280;37512;52.408;13.356;2023-11-21T06:08:26;100635.69;;;8.65;67.39
45763;BME280;37512;52.408;13.356;2023-11-21T06:12:28;100633.69;;;8.59;66.13
45763;BME280;37512;52.408;13.356;2023-11-21T06:16:44;100651.31;;;8.27;66.02
45763;BME280;37512;52.408;13.356;2023-11-21T06:20:47;100657.88;;;8.49;65.03
45763;BME280;37512;52.408;13.356;2023-11-21T06:24:49;100657.38;;;8.37;65.76
45763;BME280;37512;52.408;13.356;2023-11-21T06:28:50;100670.06;;;8.43;65.82
45763;BME280;37512;52.408;13.356;2023-11-21T06:32:52;100681.75;;;8.42;65.70
45763;BME280;37512;52.408;13.356;2023-11-21T06:36:58;100689.63;;;8.52;66.20
45763;BME280;37512;52.408;13.356;2023-11-21T06:41:02;100679.34;;;8.23;65.75
45763;BME280;37512;52.408;13.356;2023-11-21T06:45:06;100694.97;;;8.10;66.55
45763;BME280;37512;52.408;13.356;2023-11-21T06:49:08;100700.75;;;7.97;67.02
45763;BME280;37512;52.408;13.356;2023-11-21T06:53:10;100697.88;;;7.82;66.40
45763;BME280;37512;52.408;13.356;2023-11-21T06:57:12;100703.81;;;8.10;65.26
45763;BME280;37512;52.408;13.356;2023-11-21T07:01:14;100702.94;;;8.36;64.42
45763;BME280;37512;52.408;13.356;2023-11-21T07:05:30;100711.19;;;8.16;65.01
45763;BME280;37512;52.408;13.356;2023-11-21T07:09:38;100707.47;;;8.09;65.80
45763;BME280;37512;52.408;13.356;2023-11-21T07:13:40;100710.13;;;8.01;65.10
45763;BME280;37512;52.408;13.356;2023-11-21T07:17:42;100714.16;;;8.05;65.00
45763;BME280;37512;52.408;13.356;2023-11-21T07:21:45;100715.88;;;8.31;64.72
45763;BME280;37512;52.408;13.356;2023-11-21T07:25:47;100730.38;;;8.20;64.92
45763;BME280;37512;52.408;13.356;2023-11-21T07:29:49;100734.81;;;8.03;65.62
45763;BME280;37512;52.408;13.356;2023-11-21T07:34:04;100731.00;;;8.06;66.02
45763;BME280;37512;52.408;13.356;2023-11-21T07:38:06;100741.44;;;7.91;65.43
45763;BME280;37512;52.408;13.356;2023-11-21T07:42:08;100738.34;;;7.78;65.21
45763;BME280;37512;52.408;13.356;2023-11-21T07:46:13;100740.78;;;7.97;64.23
45763;BME280;37512;52.408;13.356;2023-11-21T07:50:17;100742.44;;;7.98;65.02
45763;BME280;37512;52.408;13.356;2023-11-21T07:54:21;100747.75;;;7.82;64.54
45763;BME280;37512;52.408;13.356;2023-11-21T07:58:27;100751.84;;;8.02;64.39
45763;BME280;37512;52.408;13.356;2023-11-21T08:02:30;100753.09;;;7.90;65.52
45763;BME280;37512;52.408;13.356;2023-11-21T08:06:32;100758.53;;;7.80;65.30
45763;BME280;37512;52.408;13.356;2023-11-21T08:10:36;100759.19;;;8.08;64.60
45763;BME280;37512;52.408;13.356;2023-11-21T08:14:38;100773.53;;;8.07;64.13
45763;BME280;37512;52.408;13.356;2023-11-21T08:18:42;100777.09;;;7.82;65.68
45763;BME280;37512;52.408;13.356;2023-11-21T08:22:45;100800.94;;;7.83;64.55
45763;BME280;37512;52.408;13.356;2023-11-21T08:26:47;100791.28;;;7.91;64.31
45763;BME280;37512;52.408;13.356;2023-11-21T08:30:48;100785.19;;;7.72;64.70
45763;BME280;37512;52.408;13.356;2023-11-21T08:34:50;100784.78;;;7.93;63.72
45763;BME280;37512;52.408;13.356;2023-11-21T08:38:53;100790.63;;;7.89;64.60
45763;BME280;37512;52.408;13.356;2023-11-21T08:43:12;100801.28;;;7.89;nan
45763;BME280;37512;52.408;13.356;2023-11-21T08:47:16;100802.97;;;7.98;63.36
45763;BME280;37512;52.408;13.356;2023-11-21T08:51:19;100810.41;;;8.12;63.34
45763;BME280;37512;52.408;13.356;2023-11-21T08:55:22;100815.66;;;8.30;63.05
45763;BME280;37512;52.408;13.356;2023-11-21T08:59:25;100824.13;;;7.91;64.64
45763;BME280;37512;52.408;13.356;2023-11-21T09:03:27;100822.47;;;8.16;64.12
45763;BME280;37512;52.408;13.356;2023-11-21T09:07:30;100825.78;;;7.84;66.24
45763;BME280;37512;52.408;13.356;2023-11-21T09:11:36;100839.97;;;8.19;62.37
45763;BME280;37512;52.408;13.356;2023-11-21T09:15:38;100855.66;;;8.22;64.04
45763;BME280;37512;52.408;13.356;2023-11-21T09:19:41;100856.66;;;8.21;62.62
45763;BME280;37512;52.408;13.356;2023-11-21T09:23:47;100862.81;;;8.47;62.64
45763;BME280;37512;52.408;13.356;2023-11-21T09:27:49;100859.03;;;8.32;61.43
45763;BME280;37512;52.408;13.356;2023-11-21T09:31:51;100854.13;;;8.37;62.19
45763;BME280;37512;52.408;13.356;2023-11-21T09:35:56;100875.88;;;8.24;63.42
45763;BME280;37512;52.408;13.356;2023-11-21T09:39:58;100884.81;;;8.15;61.98
45763;BME280;37512;52.408;13.356;2023-11-21T09:44:02;100873.84;;;8.18;62.48
45763;BME280;37512;52.408;13.356;2023-11-21T09:48:07;100885.50;;;8.43;61.87
45763;BME280;37512;52.408;13.356;2023-11-21T09:52:22;100892.72;;;8.25;62.52
45763;BME280;37512;52.408;13.356;2023-11-21T09:56:28;100890.88;;;7.73;62.92
45763;BME280;37512;52.408;13.356;2023-11-21T10:00:32;100898.06;;;8.51;60.72
45763;BME280;37512;52.408;13.356;2023-11-21T10:04:34;100904.50;;;8.14;62.18
45763;BME280;37512;52.408;13.356;2023-11-21T10:08:36;100901.63;;;8.07;62.42
45763;BME280;37512;52.408;13.356;2023-11-21T10:12:55;100891.91;;;7.80;63.95
45763;BME280;37512;52.408;13.356;2023-11-21T10:16:58;100902.53;;;7.72;64.56
45763;BME280;37512;52.408;13.356;2023-11-21T10:21:00;100898.91;;;8.25;61.27
45763;BME280;37512;52.408;13.356;2023-11-21T10:25:04;100902.53;;;7.72;61.31
45763;BME280;37512;52.408;13.356;2023-11-21T10:29:33;100902.94;;;8.03;61.92
45763;BME280;37512;52.408;13.356;2023-11-21T10:33:38;100915.00;;;8.15;60.59
45763;BME280;37512;52.408;13.356;2023-11-21T10:37:41;100909.31;;;7.84;61.50
45763;BME280;37512;52.408;13.356;2023-11-21T10:41:46;100920.75;;;8.29;62.11
45763;BME280;37512;52.408;13.356;2023-11-21T10:45:52;100923.38;;;7.95;61.90
45763;BME280;37512;52.408;13.356;2023-11-21T10:49:53;100932.34;;;7.68;62.26
45763;BME280;37512;52.408;13.356;2023-11-21T10:53:55;100938.25;;;7.79;62.49
45763;BME280;37512;52.408;13.356;2023-11-21T10:58:00;100936.31;;;7.81;63.09
45763;BME280;37512;52.408;13.356;2023-11-21T11:02:17;100935.16;;;7.84;63.32
45763;BME280;37512;52.408;13.356;2023-11-21T11:06:24;100945.88;;;7.74;64.13
45763;BME280;37512;52.408;13.356;2023-11-21T11:10:28;100937.53;;;7.34;65.41
45763;BME280;37512;52.408;13.356;2023-11-21T11:14:33;100947.66;;;7.30;66.34
45763;BME280;37512;52.408;13.356;2023-11-21T11:18:35;100946.25;;;7.79;65.03
45763;BME280;37512;52.408;13.356;2023-11-21T11:22:41;100949.84;;;7.88;64.52
45763;BME280;37512;52.408;13.356;2023-11-21T11:27:01;100960.59;;;7.78;64.87
45763;BME280;37512;52.408;13.356;2023-11-21T11:35:34;100973.78;;;7.44;65.72
45763;BME280;37512;52.408;13.356;2023-11-21T11:39:43;100981.22;;;7.41;65.98
45763;BME280;37512;52.408;13.356;2023-11-21T11:43:50;100985.34;;;7.35;66.44
45763;BME280;37512;52.408;13.356;2023-11-21T11:47:56;100993.19;;;7.37;66.06
45763;BME280;37512;52.408;13.356;2023-11-21T11:56:34;100999.84;;;7.50;64.97
45763;BME280;37512;52.408;13.356;2023-11-21T12:00:37;101004.66;;;7.47;64.52
45763;BME280;37512;52.408;13.356;2023-11-21T12:04:44;101019.25;;;6.88;66.37
45763;BME280;37512;52.408;13.356;2023-11-21T12:08:46;101017.25;;;7.00;66.38
45763;BME280;37512;52.408;13.356;2023-11-21T12:12:49;101030.28;;;7.30;65.55
45763;BME280;37512;52.408;13.356;2023-11-21T12:16:51;101037.81;;;7.07;65.60
45763;BME280;37512;52.408;13.356;2023-11-21T12:20:54;101035.34;;;7.23;65.44
45763;BME280;37512;52.408;13.356;2023-11-21T12:24:56;101037.25;;;7.59;65.05
45763;BME280;37512;52.408;13.356;2023-11-21T12:28:59;101045.44;;;7.30;65.27
45763;BME280;37512;52.408;13.356;2023-11-21T12:33:02;101045.09;;;7.60;65.00
45763;BME280;37512;52.408;13.356;2023-11-21T12:37:04;101056.38;;;7.54;65.05
45763;BME280;37512;52.408;13.356;2023-11-21T12:41:06;101074.47;;;7.33;66.41
45763;BME280;37512;52.408;13.356;2023-11-21T12:45:21;101077.44;;;7.30;66.63
45763;BME280;37512;52.408;13.356;2023-11-21T12:49:27;101076.09;;;7.06;66.79
45763;BME280;37512;52.408;13.356;2023-11-21T12:53:30;101067.41;;;7.04;66.96
45763;BME280;37512;52.408;13.356;2023-11-21T12:57:41;101070.16;;;7.49;65.89
45763;BME280;37512;52.408;13.356;2023-11-21T13:01:46;101081.78;;;7.31;67.38
45763;BME280;37512;52.408;13.356;2023-11-21T13:06:02;101087.97;;;6.84;68.80
45763;BME280;37512;52.408;13.356;2023-11-21T13:10:06;101086.25;;;6.93;68.35
45763;BME280;37512;52.408;13.356;2023-11-21T13:14:18;101091.25;;;7.06;67.97
45763;BME280;37512;52.408;13.356;2023-11-21T13:18:20;101097.31;;;7.35;67.11
45763;BME280;37512;52.408;13.356;2023-11-21T13:22:23;101103.69;;;6.58;68.63
45763;BME280;37512;52.408;13.356;2023-11-21T13:26:30;101101.53;;;6.91;68.13
45763;BME280;37512;52.408;13.356;2023-11-21T13:30:35;101120.03;;;7.02;67.49
45763;BME280;37512;52.408;13.356;2023-11-21T13:34:36;101119.72;;;7.15;66.88
45763;BME280;37512;52.408;13.356;2023-11-21T13:38:38;101116.75;;;7.08;67.22
45763;BME280;37512;52.408;13.356;2023-11-21T13:42:44;101121.16;;;6.90;68.37
45763;BME280;37512;52.408;13.356;2023-11-21T13:46:46;101129.84;;;7.02;67.88
45763;BME280;37512;52.408;13.356;2023-11-21T13:50:50;101131.16;;;6.78;67.31
45763;BME280;37512;52.408;13.356;2023-11-21T13:55:04;101133.53;;;6.72;68.26
45763;BME280;37512;52.408;13.356;2023-11-21T13:59:08;101149.25;;;6.55;68.29
45763;BME280;37512;52.408;13.356;2023-11-21T14:03:35;101166.38;;;6.43;68.04
45763;BME280;37512;52.408;13.356;2023-11-21T14:07:52;101165.38;;;6.34;67.78
45763;BME280;37512;52.408;13.356;2023-11-21T14:11:57;101189.75;;;6.49;67.30
45763;BME280;37512;52.408;13.356;2023-11-21T14:16:05;101190.03;;;6.56;66.91
45763;BME280;37512;52.408;13.356;2023-11-21T14:20:08;101185.38;;;6.19;68.20
45763;BME280;37512;52.408;13.356;2023-11-21T14:24:19;101199.28;;;6.42;65.73
45763;BME280;37512;52.408;13.356;2023-11-21T14:28:23;101197.88;;;6.28;66.80
45763;BME280;37512;52.408;13.356;2023-11-21T14:32:25;101203.75;;;6.32;65.78
45763;BME280;37512;52.408;13.356;2023-11-21T14:36:28;101204.31;;;6.26;67.04
45763;BME280;37512;52.408;13.356;2023-11-21T14:40:34;101201.63;;;5.76;67.00
45763;BME280;37512;52.408;13.356;2023-11-21T14:44:37;101210.31;;;6.18;66.04
45763;BME280;37512;52.408;13.356;2023-11-21T14:48:45;101223.66;;;6.28;66.44
45763;BME280;37512;52.408;13.356;2023-11-21T14:53:00;101232.56;;;6.08;66.25
45763;BME280;37512;52.408;13.356;2023-11-21T14:57:03;101240.09;;;5.93;66.00
45763;BME280;37512;52.408;13.356;2023-11-21T15:01:07;101237.88;;;5.77;67.68
45763;BME280;37512;52.408;13.356;2023-11-21T15:05:09;101251.19;;;5.77;67.23
45763;BME280;37512;52.408;13.356;2023-11-21T15:09:18;101264.41;;;5.58;68.32
45763;BME280;37512;52.408;13.356;2023-11-21T15:13:21;101265.28;;;5.98;67.32
45763;BME280;37512;52.408;13.356;2023-11-21T15:17:27;101273.31;;;5.87;67.60
45763;BME280;37512;52.408;13.356;2023-11-21T15:21:32;101287.78;;;5.64;68.33
45763;BME280;37512;52.408;13.356;2023-11-21T15:25:48;101289.06;;;5.39;68.92
45763;BME280;37512;52.408;13.356;2023-11-21T15:29:51;101301.25;;;5.72;67.03
45763;BME280;37512;52.408;13.356;2023-11-21T15:33:54;101297.56;;;5.63;67.34
45763;BME280;37512;52.408;13.356;2023-11-21T15:38:00;101309.59;;;5.58;67.46
45763;BME280;37512;52.408;13.356;2023-11-21T15:42:03;101308.81;;;5.46;66.87
45763;BME280;37512;52.408;13.356;2023-11-21T15:46:07;101309.31;;;5.61;66.17
45763;BME280;37512;52.408;13.356;2023-11-21T15:50:09;101321.13;;;5.47;66.01
45763;BME280;37512;52.408;13.356;2023-11-21T15:54:13;101311.31;;;5.48;66.35
45763;BME280;37512;52.408;13.356;2023-11-21T15:58:14;101324.66;;;5.78;64.96
45763;BME280;37512;52.408;13.356;2023-11-21T16:02:31;101334.53;;;5.66;64.88
45763;BME280;37512;52.408;13.356;2023-11-21T16:06:34;101331.69;;;5.58;65.34
45763;BME280;37512;52.408;13.356;2023-11-21T16:10:41;101339.13;;;5.64;65.18
45763;BME280;37512;52.408;13.356;2023-11-21T16:14:43;101344.25;;;5.35;64.79
45763;BME280;37512;52.408;13.356;2023-11-21T16:18:49;101359.03;;;5.70;63.75
45763;BME280;37512;52.408;13.356;2023-11-21T16:22:51;101372.22;;;5.19;64.74
45763;BME280;37512;52.408;13.356;2023-11-21T16:26:53;101390.25;;;5.15;64.34
45763;BME280;37512;52.408;13.356;2023-11-21T16:30:58;101379.06;;;5.32;64.84
45763;BME280;37512;52.408;13.356;2023-11-21T16:35:05;101397.78;;;5.31;63.70
45763;BME280;37512;52.408;13.356;2023-11-21T16:39:08;101408.66;;;5.39;63.21
45763;BME280;37512;52.408;13.356;2023-11-21T16:43:22;101411.88;;;5.10;63.58
45763;BME280;37512;52.408;13.356;2023-11-21T16:47:24;101407.59;;;5.19;64.71
45763;BME280;37512;52.408;13.356;2023-11-21T16:51:30;101430.50;;;5.42;63.42
45763;BME280;37512;52.408;13.356;2023-11-21T16:55:32;101426.34;;;5.18;64.21
45763;BME280;37512;52.408;13.356;2023-11-21T16:59:34;101424.38;;;5.31;62.46
45763;BME280;37512;52.408;13.356;2023-11-21T17:03:36;101436.25;;;5.48;61.34
45763;BME280;37512;52.408;13.356;2023-11-21T17:07:38;101441.06;;;5.22;62.39
45763;BME280;37512;52.408;13.356;2023-11-21T17:11:40;101457.81;;;5.86;61.27
45763;BME280;37512;52.408;13.356;2023-11-21T17:15:45;101463.91;;;5.56;62.17
45763;BME280;37512;52.408;13.356;2023-11-21T17:19:48;101463.56;;;5.50;60.67
45763;BME280;37512;52.408;13.356;2023-11-21T17:23:50;101468.16;;;5.48;61.52
45763;BME280;37512;52.408;13.356;2023-11-21T17:27:51;101481.47;;;5.36;60.28
45763;BME280;37512;52.408;13.356;2023-11-21T17:31:54;101478.28;;;5.22;59.52
45763;BME280;37512;52.408;13.356;2023-11-21T17:35:55;101488.16;;;5.20;60.65
45763;BME280;37512;52.408;13.356;2023-11-21T17:39:57;101498.31;;;5.26;59.93
45763;BME280;37512;52.408;13.356;2023-11-21T17:43:59;101509.56;;;5.07;60.21
45763;BME280;37512;52.408;13.356;2023-11-21T17:48:09;101507.38;;;5.01;59.74
45763;BME280;37512;52.408;13.356;2023-11-21T17:52:13;101515.56;;;5.20;60.36
45763;BME280;37512;52.408;13.356;2023-11-21T17:56:16;101525.25;;;5.64;57.92
45763;BME280;37512;52.408;13.356;2023-11-21T18:00:21;101527.75;;;5.34;58.91
45763;BME280;37512;52.408;13.356;2023-11-21T18:04:27;101540.38;;;5.53;58.95
45763;BME280;37512;52.408;13.356;2023-11-21T18:08:28;101550.09;;;5.42;58.31
45763;BME280;37512;52.408;13.356;2023-11-21T18:12:31;101557.25;;;4.97;58.22
45763;BME280;37512;52.408;13.356;2023-11-21T18:16:32;101565.22;;;5.08;57.86
45763;BME280;37512;52.408;13.356;2023-11-21T18:20:34;101563.53;;;4.96;58.83
45763;BME280;37512;52.408;13.356;2023-11-21T18:24:36;101556.66;;;5.16;58.57
45763;BME280;37512;52.408;13.356;2023-11-21T18:28:38;101576.81;;;4.85;59.68
45763;BME280;37512;52.408;13.356;2023-11-21T18:32:41;101589.53;;;5.04;60.04
45763;BME280;37512;52.408;13.356;2023-11-21T18:36:44;101593.84;;;5.16;58.14
45763;BME280;37512;52.408;13.356;2023-11-21T18:40:46;101599.75;;;4.75;58.25
45763;BME280;37512;52.408;13.356;2023-11-21T18:44:48;101600.03;;;5.05;59.38
45763;BME280;37512;52.408;13.356;2023-11-21T18:48:59;101619.19;;;5.20;58.64
45763;BME280;37512;52.408;13.356;2023-11-21T18:53:01;101626.34;;;5.08;59.16
45763;BME280;37512;52.408;13.356;2023-11-21T18:57:03;101623.66;;;5.20;59.37
45763;BME280;37512;52.408;13.356;2023-11-21T19:01:06;101625.13;;;5.24;58.47
45763;BME280;37512;52.408;13.356;2023-11-21T19:05:13;101638.06;;;5.28;58.00
45763;BME280;37512;52.408;13.356;2023-11-21T19:09:18;101647.09;;;5.14;58.11
45763;BME280;37512;52.408;13.356;2023-11-21T19:13:21;101656.13;;;4.90;59.52
45763;BME280;37512;52.408;13.356;2023-11-21T19:17:28;101647.69;;;4.96;58.34
45763;BME280;37512;52.408;13.356;2023-11-21T19:21:30;101664.38;;;5.31;58.70
45763;BME280;37512;52.408;13.356;2023-11-21T19:25:32;101671.81;;;4.81;58.80
45763;BME280;37512;52.408;13.356;2023-11-21T19:29:34;101679.44;;;4.97;58.80
45763;BME280;37512;52.408;13.356;2023-11-21T19:33:39;101678.38;;;5.11;58.04
45763;BME280;37512;52.408;13.356;2023-11-21T19:37:50;101684.00;;;4.84;58.13
45763;BME280;37512;52.408;13.356;2023-11-21T19:41:55;101692.13;;;4.59;59.04
45763;BME280;37512;52.408;13.356;2023-11-21T19:46:02;101694.72;;;4.71;58.57
45763;BME280;37512;52.408;13.356;2023-11-21T19:50:06;101713.75;;;5.11;58.00
45763;BME280;37512;52.408;13.356;2023-11-21T19:54:13;101719.16;;;4.99;57.80
45763;BME280;37512;52.408;13.356;2023-11-21T19:58:14;101727.25;;;4.97;59.23
45763;BME280;37512;52.408;13.356;2023-11-21T20:02:18;101732.28;;;4.78;59.11
45763;BME280;37512;52.408;13.356;2023-11-21T20:06:20;101734.41;;;5.08;57.34
45763;BME280;37512;52.408;13.356;2023-11-21T20:10:24;101729.47;;;5.03;56.55
45763;BME280;37512;52.408;13.356;2023-11-21T20:14:26;101723.34;;;4.79;58.38
45763;BME280;37512;52.408;13.356;2023-11-21T20:18:30;101723.69;;;4.50;58.64
45763;BME280;37512;52.408;13.356;2023-11-21T20:22:32;101729.41;;;4.92;57.40
45763;BME280;37512;52.408;13.356;2023-11-21T20:26:37;101737.03;;;4.97;57.74
45763;BME280;37512;52.408;13.356;2023-11-21T20:30:42;101749.94;;;4.55;58.17
45763;BME280;37512;52.408;13.356;2023-11-21T20:34:45;101747.78;;;4.60;58.70
45763;BME280;37512;52.408;13.356;2023-11-21T20:38:48;101752.47;;;4.57;58.85
45763;BME280;37512;52.408;13.356;2023-11-21T20:42:52;101766.72;;;4.67;59.51
45763;BME280;37512;52.408;13.356;2023-11-21T20:47:01;101764.59;;;4.72;59.98
45763;BME280;37512;52.408;13.356;2023-11-21T20:51:12;101765.59;;;4.82;58.31
45763;BME280;37512;52.408;13.356;2023-11-21T20:55:30;101778.56;;;4.39;60.20
45763;BME280;37512;52.408;13.356;2023-11-21T20:59:32;101789.72;;;4.79;58.72
45763;BME280;37512;52.408;13.356;2023-11-21T21:03:34;101801.06;;;4.81;58.73
45763;BME280;37512;52.408;13.356;2023-11-21T21:07:36;101802.22;;;4.42;59.95
45763;BME280;37512;52.408;13.356;2023-11-21T21:11:43;101794.53;;;4.13;60.88
45763;BME280;37512;52.408;13.356;2023-11-21T21:15:45;101799.78;;;4.63;60.04
45763;BME280;37512;52.408;13.356;2023-11-21T21:19:58;101800.00;;;4.36;61.09
45763;BME280;37512;52.408;13.356;2023-11-21T21:24:05;101798.50;;;3.95;61.47
45763;BME280;37512;52.408;13.356;2023-11-21T21:28:07;101804.06;;;4.16;61.66